sensor_id;sensor_type;location;lat;lon;timestamp;temperature;humidity
38866;DHT22;62686;48.984;8.394;2022-12-26T00:01:09;8.50;99.90
38866;DHT22;62686;48.984;8.394;2022-12-26T00:03:38;8.50;99.90
38866;DHT22;62686;48.984;8.394;2022-12-26T00:06:11;8.70;99.90
38866;DHT22;62686;48.984;8.394;2022-12-26T00:08:40;9.00;99.90
38866;DHT22;62686;48.984;8.394;2022-12-26T00:11:08;9.20;99.90
38866;DHT22;62686;48.984;8.394;2022-12-26T00:13:36;9.40;99.90
38866;DHT22;62686;48.984;8.394;2022-12-26T00:16:09;9.40;99.90
38866;DHT22;62686;48.984;8.394;2022-12-26T00:18:38;9.60;99.90
38866;DHT22;62686;48.984;8.394;2022-12-26T00:21:08;9.80;99.90
38866;DHT22;62686;48.984;8.394;2022-12-26T00:23:37;10.00;99.90
38866;DHT22;62686;48.984;8.394;2022-12-26T00:26:07;10.10;99.90
38866;DHT22;62686;48.984;8.394;2022-12-26T00:28:35;10.30;99.90
38866;DHT22;62686;48.984;8.394;2022-12-26T00:31:04;10.60;99.90
38866;DHT22;62686;48.984;8.394;2022-12-26T00:33:34;10.70;99.90
38866;DHT22;62686;48.984;8.394;2022-12-26T00:36:04;10.70;99.90
38866;DHT22;62686;48.984;8.394;2022-12-26T00:38:34;10.70;99.90
38866;DHT22;62686;48.984;8.394;2022-12-26T00:41:02;10.80;99.90
38866;DHT22;62686;48.984;8.394;2022-12-26T00:43:31;10.90;99.90
38866;DHT22;62686;48.984;8.394;2022-12-26T00:45:59;10.90;99.90
38866;DHT22;62686;48.984;8.394;2022-12-26T00:48:28;11.00;99.90
38866;DHT22;62686;48.984;8.394;2022-12-26T00:50:57;11.10;99.90
38866;DHT22;62686;48.984;8.394;2022-12-26T00:53:26;11.10;99.90
38866;DHT22;62686;48.984;8.394;2022-12-26T00:55:57;11.10;99.90
38866;DHT22;62686;48.984;8.394;2022-12-26T00:58:25;11.20;99.90
38866;DHT22;62686;48.984;8.394;2022-12-26T01:01:04;11.40;99.90
38866;DHT22;62686;48.984;8.394;2022-12-26T01:03:32;11.50;99.90
38866;DHT22;62686;48.984;8.394;2022-12-26T01:06:03;11.60;99.90
38866;DHT22;62686;48.984;8.394;2022-12-26T01:08:34;11.70;99.90
38866;DHT22;62686;48.984;8.394;2022-12-26T01:11:05;11.80;99.90
38866;DHT22;62686;48.984;8.394;2022-12-26T01:13:35;11.90;99.90
38866;DHT22;62686;48.984;8.394;2022-12-26T01:16:06;12.00;99.90
38866;DHT22;62686;48.984;8.394;2022-12-26T01:18:35;12.10;99.90
38866;DHT22;62686;48.984;8.394;2022-12-26T01:21:07;12.20;99.90
38866;DHT22;62686;48.984;8.394;2022-12-26T01:23:35;12.20;99.90
38866;DHT22;62686;48.984;8.394;2022-12-26T01:26:03;12.20;99.90
38866;DHT22;62686;48.984;8.394;2022-12-26T01:28:32;12.20;99.90
38866;DHT22;62686;48.984;8.394;2022-12-26T01:31:01;12.20;99.90
38866;DHT22;62686;48.984;8.394;2022-12-26T01:33:30;12.20;99.90
38866;DHT22;62686;48.984;8.394;2022-12-26T01:35:58;12.20;99.90
38866;DHT22;62686;48.984;8.394;2022-12-26T01:38:28;12.30;99.90
38866;DHT22;62686;48.984;8.394;2022-12-26T01:40:56;12.30;99.90
38866;DHT22;62686;48.984;8.394;2022-12-26T01:43:49;12.30;99.90
38866;DHT22;62686;48.984;8.394;2022-12-26T01:46:20;12.20;99.90
38866;DHT22;62686;48.984;8.394;2022-12-26T01:48:49;12.30;99.90
38866;DHT22;62686;48.984;8.394;2022-12-26T01:51:20;12.40;99.90
38866;DHT22;62686;48.984;8.394;2022-12-26T01:53:53;12.50;99.90
38866;DHT22;62686;48.984;8.394;2022-12-26T01:56:25;12.60;99.90
38866;DHT22;62686;48.984;8.394;2022-12-26T01:59:01;12.70;99.90
38866;DHT22;62686;48.984;8.394;2022-12-26T02:01:31;12.60;99.90
38866;DHT22;62686;48.984;8.394;2022-12-26T02:04:01;12.60;99.90
38866;DHT22;62686;48.984;8.394;2022-12-26T02:06:48;12.50;99.90
38866;DHT22;62686;48.984;8.394;2022-12-26T02:09:18;12.50;99.90
38866;DHT22;62686;48.984;8.394;2022-12-26T02:11:49;12.40;99.90
38866;DHT22;62686;48.984;8.394;2022-12-26T02:14:19;12.50;99.90
38866;DHT22;62686;48.984;8.394;2022-12-26T02:16:47;12.40;99.90
38866;DHT22;62686;48.984;8.394;2022-12-26T02:19:22;12.40;99.90
38866;DHT22;62686;48.984;8.394;2022-12-26T02:22:18;12.40;99.90
38866;DHT22;62686;48.984;8.394;2022-12-26T02:28:34;12.40;99.90
38866;DHT22;62686;48.984;8.394;2022-12-26T02:31:13;12.30;99.90
38866;DHT22;62686;48.984;8.394;2022-12-26T02:33:53;12.30;99.90
38866;DHT22;62686;48.984;8.394;2022-12-26T02:36:40;12.30;99.90
38866;DHT22;62686;48.984;8.394;2022-12-26T02:39:21;12.30;99.90
38866;DHT22;62686;48.984;8.394;2022-12-26T02:41:58;12.50;99.90
38866;DHT22;62686;48.984;8.394;2022-12-26T02:44:34;12.60;99.90
38866;DHT22;62686;48.984;8.394;2022-12-26T02:47:32;12.80;99.90
38866;DHT22;62686;48.984;8.394;2022-12-26T02:50:08;12.80;99.90
38866;DHT22;62686;48.984;8.394;2022-12-26T02:53:04;12.90;99.90
38866;DHT22;62686;48.984;8.394;2022-12-26T02:55:58;12.90;99.90
38866;DHT22;62686;48.984;8.394;2022-12-26T02:58:52;12.80;99.90
38866;DHT22;62686;48.984;8.394;2022-12-26T03:01:43;12.80;99.90
38866;DHT22;62686;48.984;8.394;2022-12-26T03:04:34;12.90;99.90
38866;DHT22;62686;48.984;8.394;2022-12-26T03:07:23;12.90;99.90
38866;DHT22;62686;48.984;8.394;2022-12-26T03:10:17;12.90;99.90
38866;DHT22;62686;48.984;8.394;2022-12-26T03:13:07;13.00;99.90
38866;DHT22;62686;48.984;8.394;2022-12-26T03:15:43;12.90;99.90
38866;DHT22;62686;48.984;8.394;2022-12-26T03:18:31;12.90;99.90
38866;DHT22;62686;48.984;8.394;2022-12-26T03:21:03;12.80;99.90
38866;DHT22;62686;48.984;8.394;2022-12-26T03:23:33;12.80;99.90
38866;DHT22;62686;48.984;8.394;2022-12-26T03:26:06;12.70;99.90
38866;DHT22;62686;48.984;8.394;2022-12-26T03:28:52;12.70;99.90
38866;DHT22;62686;48.984;8.394;2022-12-26T03:31:44;12.60;99.90
38866;DHT22;62686;48.984;8.394;2022-12-26T03:34:11;12.70;99.90
38866;DHT22;62686;48.984;8.394;2022-12-26T03:36:57;12.70;99.90
38866;DHT22;62686;48.984;8.394;2022-12-26T03:39:37;12.70;99.90
38866;DHT22;62686;48.984;8.394;2022-12-26T03:42:30;12.70;99.90
38866;DHT22;62686;48.984;8.394;2022-12-26T03:45:26;12.70;99.90
38866;DHT22;62686;48.984;8.394;2022-12-26T03:48:19;12.60;99.90
38866;DHT22;62686;48.984;8.394;2022-12-26T03:51:08;12.60;99.90
38866;DHT22;62686;48.984;8.394;2022-12-26T03:53:59;12.50;99.90
38866;DHT22;62686;48.984;8.394;2022-12-26T03:56:53;12.50;99.90
38866;DHT22;62686;48.984;8.394;2022-12-26T03:59:43;12.60;99.90
38866;DHT22;62686;48.984;8.394;2022-12-26T04:02:31;12.80;99.90
38866;DHT22;62686;48.984;8.394;2022-12-26T04:05:18;12.80;99.90
38866;DHT22;62686;48.984;8.394;2022-12-26T04:08:10;12.80;99.90
38866;DHT22;62686;48.984;8.394;2022-12-26T04:11:00;12.90;99.90
38866;DHT22;62686;48.984;8.394;2022-12-26T04:13:52;12.80;99.90
38866;DHT22;62686;48.984;8.394;2022-12-26T04:16:42;13.00;99.90
38866;DHT22;62686;48.984;8.394;2022-12-26T04:19:47;13.00;99.90
38866;DHT22;62686;48.984;8.394;2022-12-26T04:22:22;13.00;99.90
38866;DHT22;62686;48.984;8.394;2022-12-26T04:25:13;12.90;99.90
38866;DHT22;62686;48.984;8.394;2022-12-26T04:28:01;12.80;99.90
38866;DHT22;62686;48.984;8.394;2022-12-26T04:30:49;12.80;99.90
38866;DHT22;62686;48.984;8.394;2022-12-26T04:33:42;12.80;99.90
38866;DHT22;62686;48.984;8.394;2022-12-26T04:36:32;12.90;99.90
38866;DHT22;62686;48.984;8.394;2022-12-26T04:39:22;13.00;99.90
38866;DHT22;62686;48.984;8.394;2022-12-26T04:42:11;12.90;99.90
38866;DHT22;62686;48.984;8.394;2022-12-26T04:44:58;13.10;99.90
38866;DHT22;62686;48.984;8.394;2022-12-26T04:47:29;13.20;99.90
38866;DHT22;62686;48.984;8.394;2022-12-26T04:49:57;13.20;99.90
38866;DHT22;62686;48.984;8.394;2022-12-26T04:52:40;13.20;99.90
38866;DHT22;62686;48.984;8.394;2022-12-26T04:55:28;13.20;99.90
38866;DHT22;62686;48.984;8.394;2022-12-26T04:57:57;13.20;99.90
38866;DHT22;62686;48.984;8.394;2022-12-26T05:00:27;13.20;99.90
38866;DHT22;62686;48.984;8.394;2022-12-26T05:02:56;13.10;99.90
38866;DHT22;62686;48.984;8.394;2022-12-26T05:05:46;12.80;99.90
38866;DHT22;62686;48.984;8.394;2022-12-26T05:08:34;12.50;99.90
38866;DHT22;62686;48.984;8.394;2022-12-26T05:11:20;12.10;99.90
38866;DHT22;62686;48.984;8.394;2022-12-26T05:13:49;11.90;99.90
38866;DHT22;62686;48.984;8.394;2022-12-26T05:16:19;11.70;99.90
38866;DHT22;62686;48.984;8.394;2022-12-26T05:19:07;11.60;99.90
38866;DHT22;62686;48.984;8.394;2022-12-26T05:21:53;11.50;99.90
38866;DHT22;62686;48.984;8.394;2022-12-26T05:24:40;11.30;99.90
38866;DHT22;62686;48.984;8.394;2022-12-26T05:27:31;11.20;99.90
38866;DHT22;62686;48.984;8.394;2022-12-26T05:30:18;11.20;99.90
38866;DHT22;62686;48.984;8.394;2022-12-26T05:32:47;11.30;99.90
38866;DHT22;62686;48.984;8.394;2022-12-26T05:35:33;11.40;99.90
38866;DHT22;62686;48.984;8.394;2022-12-26T05:38:02;11.50;99.90
38866;DHT22;62686;48.984;8.394;2022-12-26T05:40:31;11.50;99.90
38866;DHT22;62686;48.984;8.394;2022-12-26T05:42:59;11.60;99.90
38866;DHT22;62686;48.984;8.394;2022-12-26T05:45:27;11.60;99.90
38866;DHT22;62686;48.984;8.394;2022-12-26T05:47:58;11.60;99.90
38866;DHT22;62686;48.984;8.394;2022-12-26T05:50:27;11.60;99.90
38866;DHT22;62686;48.984;8.394;2022-12-26T05:52:55;11.60;99.90
38866;DHT22;62686;48.984;8.394;2022-12-26T05:55:24;11.60;99.90
38866;DHT22;62686;48.984;8.394;2022-12-26T05:57:52;11.50;99.90
38866;DHT22;62686;48.984;8.394;2022-12-26T06:00:21;11.50;99.90
38866;DHT22;62686;48.984;8.394;2022-12-26T06:02:49;11.50;99.90
38866;DHT22;62686;48.984;8.394;2022-12-26T06:05:18;11.60;99.90
38866;DHT22;62686;48.984;8.394;2022-12-26T06:07:47;11.70;99.90
38866;DHT22;62686;48.984;8.394;2022-12-26T06:10:15;11.70;99.90
38866;DHT22;62686;48.984;8.394;2022-12-26T06:12:43;11.90;99.90
38866;DHT22;62686;48.984;8.394;2022-12-26T06:15:11;11.90;99.90
38866;DHT22;62686;48.984;8.394;2022-12-26T06:17:39;12.00;99.90
38866;DHT22;62686;48.984;8.394;2022-12-26T06:20:08;12.10;99.90
38866;DHT22;62686;48.984;8.394;2022-12-26T06:22:37;12.20;99.90
38866;DHT22;62686;48.984;8.394;2022-12-26T06:25:06;12.20;99.90
38866;DHT22;62686;48.984;8.394;2022-12-26T06:27:35;12.30;99.90
38866;DHT22;62686;48.984;8.394;2022-12-26T06:30:03;12.40;99.90
38866;DHT22;62686;48.984;8.394;2022-12-26T06:32:32;12.30;99.90
38866;DHT22;62686;48.984;8.394;2022-12-26T06:35:01;12.10;99.90
38866;DHT22;62686;48.984;8.394;2022-12-26T06:37:29;12.00;99.90
38866;DHT22;62686;48.984;8.394;2022-12-26T06:39:58;11.80;99.90
38866;DHT22;62686;48.984;8.394;2022-12-26T06:42:27;11.60;99.90
38866;DHT22;62686;48.984;8.394;2022-12-26T06:44:55;11.40;99.90
38866;DHT22;62686;48.984;8.394;2022-12-26T06:47:23;11.30;99.90
38866;DHT22;62686;48.984;8.394;2022-12-26T06:49:51;11.20;99.90
38866;DHT22;62686;48.984;8.394;2022-12-26T06:52:19;11.00;99.90
38866;DHT22;62686;48.984;8.394;2022-12-26T06:54:47;10.90;99.90
38866;DHT22;62686;48.984;8.394;2022-12-26T06:57:17;10.80;99.90
38866;DHT22;62686;48.984;8.394;2022-12-26T06:59:45;10.70;99.90
38866;DHT22;62686;48.984;8.394;2022-12-26T07:02:13;10.70;99.90
38866;DHT22;62686;48.984;8.394;2022-12-26T07:04:41;10.60;99.90
38866;DHT22;62686;48.984;8.394;2022-12-26T07:07:10;10.60;99.90
38866;DHT22;62686;48.984;8.394;2022-12-26T07:09:38;10.60;99.90
38866;DHT22;62686;48.984;8.394;2022-12-26T07:12:06;10.60;99.90
38866;DHT22;62686;48.984;8.394;2022-12-26T07:14:36;10.60;99.90
38866;DHT22;62686;48.984;8.394;2022-12-26T07:17:04;10.50;99.90
38866;DHT22;62686;48.984;8.394;2022-12-26T07:19:32;10.60;99.90
38866;DHT22;62686;48.984;8.394;2022-12-26T07:22:00;10.50;99.90
38866;DHT22;62686;48.984;8.394;2022-12-26T07:24:29;10.50;99.90
38866;DHT22;62686;48.984;8.394;2022-12-26T07:26:57;10.50;99.90
38866;DHT22;62686;48.984;8.394;2022-12-26T07:29:25;10.50;99.90
38866;DHT22;62686;48.984;8.394;2022-12-26T07:31:55;10.50;99.90
38866;DHT22;62686;48.984;8.394;2022-12-26T07:34:23;10.40;99.90
38866;DHT22;62686;48.984;8.394;2022-12-26T07:36:56;10.40;99.90
38866;DHT22;62686;48.984;8.394;2022-12-26T07:39:24;10.40;99.90
38866;DHT22;62686;48.984;8.394;2022-12-26T07:41:53;10.40;99.90
38866;DHT22;62686;48.984;8.394;2022-12-26T07:44:31;10.50;99.90
38866;DHT22;62686;48.984;8.394;2022-12-26T07:47:00;10.50;99.90
38866;DHT22;62686;48.984;8.394;2022-12-26T07:49:28;10.50;99.90
38866;DHT22;62686;48.984;8.394;2022-12-26T07:51:57;10.50;99.90
38866;DHT22;62686;48.984;8.394;2022-12-26T07:54:25;10.50;99.90
38866;DHT22;62686;48.984;8.394;2022-12-26T07:56:55;10.40;99.90
38866;DHT22;62686;48.984;8.394;2022-12-26T07:59:35;10.50;99.90
38866;DHT22;62686;48.984;8.394;2022-12-26T08:02:05;10.50;99.90
38866;DHT22;62686;48.984;8.394;2022-12-26T08:04:33;10.50;99.90
38866;DHT22;62686;48.984;8.394;2022-12-26T08:07:01;10.50;99.90
38866;DHT22;62686;48.984;8.394;2022-12-26T08:09:30;10.40;99.90
38866;DHT22;62686;48.984;8.394;2022-12-26T08:11:58;10.50;99.90
38866;DHT22;62686;48.984;8.394;2022-12-26T08:14:27;10.50;99.90
38866;DHT22;62686;48.984;8.394;2022-12-26T08:16:56;10.50;99.90
38866;DHT22;62686;48.984;8.394;2022-12-26T08:19:26;10.60;99.90
38866;DHT22;62686;48.984;8.394;2022-12-26T08:21:56;10.60;99.90
38866;DHT22;62686;48.984;8.394;2022-12-26T08:24:27;10.70;99.90
38866;DHT22;62686;48.984;8.394;2022-12-26T08:26:57;10.70;99.90
38866;DHT22;62686;48.984;8.394;2022-12-26T08:29:28;10.80;99.90
38866;DHT22;62686;48.984;8.394;2022-12-26T08:31:59;10.80;99.90
38866;DHT22;62686;48.984;8.394;2022-12-26T08:34:39;10.80;99.90
38866;DHT22;62686;48.984;8.394;2022-12-26T08:37:09;10.90;99.90
38866;DHT22;62686;48.984;8.394;2022-12-26T08:39:38;10.80;99.90
38866;DHT22;62686;48.984;8.394;2022-12-26T08:42:08;10.90;99.90
38866;DHT22;62686;48.984;8.394;2022-12-26T08:44:37;10.90;99.90
38866;DHT22;62686;48.984;8.394;2022-12-26T08:47:09;10.90;99.90
38866;DHT22;62686;48.984;8.394;2022-12-26T08:49:40;10.90;99.90
38866;DHT22;62686;48.984;8.394;2022-12-26T08:52:08;10.90;99.90
38866;DHT22;62686;48.984;8.394;2022-12-26T08:54:36;10.90;99.90
38866;DHT22;62686;48.984;8.394;2022-12-26T08:57:05;10.90;99.90
38866;DHT22;62686;48.984;8.394;2022-12-26T08:59:33;10.90;99.90
38866;DHT22;62686;48.984;8.394;2022-12-26T09:02:03;10.80;99.90
38866;DHT22;62686;48.984;8.394;2022-12-26T09:04:31;10.80;99.90
38866;DHT22;62686;48.984;8.394;2022-12-26T09:07:01;10.80;99.90
38866;DHT22;62686;48.984;8.394;2022-12-26T09:09:29;10.80;99.90
38866;DHT22;62686;48.984;8.394;2022-12-26T09:11:58;10.80;99.90
38866;DHT22;62686;48.984;8.394;2022-12-26T09:14:26;10.80;99.90
38866;DHT22;62686;48.984;8.394;2022-12-26T09:16:54;10.80;99.90
38866;DHT22;62686;48.984;8.394;2022-12-26T09:19:23;10.70;99.90
38866;DHT22;62686;48.984;8.394;2022-12-26T09:21:55;10.70;99.90
38866;DHT22;62686;48.984;8.394;2022-12-26T09:24:38;10.60;99.90
38866;DHT22;62686;48.984;8.394;2022-12-26T09:27:07;10.60;99.90
38866;DHT22;62686;48.984;8.394;2022-12-26T09:29:36;10.60;99.90
38866;DHT22;62686;48.984;8.394;2022-12-26T09:32:04;10.70;99.90
38866;DHT22;62686;48.984;8.394;2022-12-26T09:34:33;10.60;99.90
38866;DHT22;62686;48.984;8.394;2022-12-26T09:37:01;10.70;99.90
38866;DHT22;62686;48.984;8.394;2022-12-26T09:39:29;10.60;99.90
38866;DHT22;62686;48.984;8.394;2022-12-26T09:42:05;10.70;99.90
38866;DHT22;62686;48.984;8.394;2022-12-26T09:44:42;10.60;99.90
38866;DHT22;62686;48.984;8.394;2022-12-26T09:47:21;10.60;99.90
38866;DHT22;62686;48.984;8.394;2022-12-26T09:49:55;10.60;99.90
38866;DHT22;62686;48.984;8.394;2022-12-26T09:52:34;10.60;99.90
38866;DHT22;62686;48.984;8.394;2022-12-26T09:55:12;10.60;99.90
38866;DHT22;62686;48.984;8.394;2022-12-26T09:57:46;10.60;99.90
38866;DHT22;62686;48.984;8.394;2022-12-26T10:00:18;10.60;99.90
38866;DHT22;62686;48.984;8.394;2022-12-26T10:02:50;10.60;99.90
38866;DHT22;62686;48.984;8.394;2022-12-26T10:05:20;10.60;99.90
38866;DHT22;62686;48.984;8.394;2022-12-26T10:07:52;10.70;99.90
38866;DHT22;62686;48.984;8.394;2022-12-26T10:10:25;10.80;99.90
38866;DHT22;62686;48.984;8.394;2022-12-26T10:13:06;10.70;99.90
38866;DHT22;62686;48.984;8.394;2022-12-26T10:15:41;10.80;99.90
38866;DHT22;62686;48.984;8.394;2022-12-26T10:18:17;10.80;99.90
38866;DHT22;62686;48.984;8.394;2022-12-26T10:21:05;10.80;99.90
38866;DHT22;62686;48.984;8.394;2022-12-26T10:23:37;10.80;99.90
38866;DHT22;62686;48.984;8.394;2022-12-26T10:26:10;10.70;99.90
38866;DHT22;62686;48.984;8.394;2022-12-26T10:28:44;10.80;99.90
38866;DHT22;62686;48.984;8.394;2022-12-26T10:31:18;10.80;99.90
38866;DHT22;62686;48.984;8.394;2022-12-26T10:33:51;10.80;99.90
38866;DHT22;62686;48.984;8.394;2022-12-26T10:36:28;10.80;99.90
38866;DHT22;62686;48.984;8.394;2022-12-26T10:38:58;10.80;99.90
38866;DHT22;62686;48.984;8.394;2022-12-26T10:41:33;10.80;99.90
38866;DHT22;62686;48.984;8.394;2022-12-26T10:44:03;10.90;99.90
38866;DHT22;62686;48.984;8.394;2022-12-26T10:47:00;10.90;99.90
38866;DHT22;62686;48.984;8.394;2022-12-26T10:49:30;10.90;99.90
38866;DHT22;62686;48.984;8.394;2022-12-26T10:52:00;10.90;99.90
38866;DHT22;62686;48.984;8.394;2022-12-26T10:54:29;11.00;99.90
38866;DHT22;62686;48.984;8.394;2022-12-26T10:56:58;11.00;99.90
38866;DHT22;62686;48.984;8.394;2022-12-26T10:59:38;11.00;99.90
38866;DHT22;62686;48.984;8.394;2022-12-26T11:02:21;11.10;99.90
38866;DHT22;62686;48.984;8.394;2022-12-26T11:04:59;11.20;99.90
38866;DHT22;62686;48.984;8.394;2022-12-26T11:07:52;11.20;99.90
38866;DHT22;62686;48.984;8.394;2022-12-26T11:10:23;11.20;99.90
38866;DHT22;62686;48.984;8.394;2022-12-26T11:12:54;11.30;99.90
38866;DHT22;62686;48.984;8.394;2022-12-26T11:15:30;11.30;99.90
38866;DHT22;62686;48.984;8.394;2022-12-26T11:18:08;11.30;99.90
38866;DHT22;62686;48.984;8.394;2022-12-26T11:20:42;11.20;99.90
38866;DHT22;62686;48.984;8.394;2022-12-26T11:23:23;11.20;99.90
38866;DHT22;62686;48.984;8.394;2022-12-26T11:25:53;11.30;99.90
38866;DHT22;62686;48.984;8.394;2022-12-26T11:28:30;11.30;99.90
38866;DHT22;62686;48.984;8.394;2022-12-26T11:31:02;11.30;99.90
38866;DHT22;62686;48.984;8.394;2022-12-26T11:33:32;11.20;99.90
38866;DHT22;62686;48.984;8.394;2022-12-26T11:36:09;11.20;99.90
38866;DHT22;62686;48.984;8.394;2022-12-26T11:38:52;11.10;99.90
38866;DHT22;62686;48.984;8.394;2022-12-26T11:41:34;11.10;99.90
38866;DHT22;62686;48.984;8.394;2022-12-26T11:44:17;11.10;99.90
38866;DHT22;62686;48.984;8.394;2022-12-26T11:46:51;11.20;99.90
38866;DHT22;62686;48.984;8.394;2022-12-26T11:49:24;11.30;99.90
38866;DHT22;62686;48.984;8.394;2022-12-26T11:51:54;11.30;99.90
38866;DHT22;62686;48.984;8.394;2022-12-26T11:54:31;11.30;99.90
38866;DHT22;62686;48.984;8.394;2022-12-26T11:57:14;11.30;99.90
38866;DHT22;62686;48.984;8.394;2022-12-26T11:59:43;11.40;99.90
38866;DHT22;62686;48.984;8.394;2022-12-26T12:02:23;11.40;99.90
38866;DHT22;62686;48.984;8.394;2022-12-26T12:04:55;11.40;99.90
38866;DHT22;62686;48.984;8.394;2022-12-26T12:07:39;11.30;99.90
38866;DHT22;62686;48.984;8.394;2022-12-26T12:10:30;11.30;99.90
38866;DHT22;62686;48.984;8.394;2022-12-26T12:13:04;11.40;99.90
38866;DHT22;62686;48.984;8.394;2022-12-26T12:15:40;11.50;99.90
38866;DHT22;62686;48.984;8.394;2022-12-26T12:18:18;11.50;99.90
38866;DHT22;62686;48.984;8.394;2022-12-26T12:20:56;11.60;99.90
38866;DHT22;62686;48.984;8.394;2022-12-26T12:23:45;11.60;99.90
38866;DHT22;62686;48.984;8.394;2022-12-26T12:26:22;11.60;99.90
38866;DHT22;62686;48.984;8.394;2022-12-26T12:29:12;11.80;99.90
38866;DHT22;62686;48.984;8.394;2022-12-26T12:31:59;11.80;99.90
38866;DHT22;62686;48.984;8.394;2022-12-26T12:34:41;11.80;99.90
38866;DHT22;62686;48.984;8.394;2022-12-26T12:37:22;11.50;99.90
38866;DHT22;62686;48.984;8.394;2022-12-26T12:39:57;11.30;99.90
38866;DHT22;62686;48.984;8.394;2022-12-26T12:42:43;11.20;99.90
38866;DHT22;62686;48.984;8.394;2022-12-26T12:45:22;11.00;99.90
38866;DHT22;62686;48.984;8.394;2022-12-26T12:48:04;10.90;99.90
38866;DHT22;62686;48.984;8.394;2022-12-26T12:50:41;10.90;99.90
38866;DHT22;62686;48.984;8.394;2022-12-26T12:53:21;10.70;99.90
38866;DHT22;62686;48.984;8.394;2022-12-26T12:56:00;10.70;99.90
38866;DHT22;62686;48.984;8.394;2022-12-26T12:58:40;10.70;99.90
38866;DHT22;62686;48.984;8.394;2022-12-26T13:01:14;10.70;99.90
38866;DHT22;62686;48.984;8.394;2022-12-26T13:03:49;10.70;99.90
38866;DHT22;62686;48.984;8.394;2022-12-26T13:06:25;10.70;99.90
38866;DHT22;62686;48.984;8.394;2022-12-26T13:08:56;10.70;99.90
38866;DHT22;62686;48.984;8.394;2022-12-26T13:11:29;10.80;99.90
38866;DHT22;62686;48.984;8.394;2022-12-26T13:14:02;10.80;99.90
38866;DHT22;62686;48.984;8.394;2022-12-26T13:16:37;10.80;99.90
38866;DHT22;62686;48.984;8.394;2022-12-26T13:19:15;10.80;99.90
38866;DHT22;62686;48.984;8.394;2022-12-26T13:21:46;10.70;99.90
38866;DHT22;62686;48.984;8.394;2022-12-26T13:24:18;10.70;99.90
38866;DHT22;62686;48.984;8.394;2022-12-26T13:26:59;10.70;99.90
38866;DHT22;62686;48.984;8.394;2022-12-26T13:29:35;10.60;99.90
38866;DHT22;62686;48.984;8.394;2022-12-26T13:32:14;10.60;99.90
38866;DHT22;62686;48.984;8.394;2022-12-26T13:34:44;10.60;99.90
38866;DHT22;62686;48.984;8.394;2022-12-26T13:40:23;10.60;99.90
38866;DHT22;62686;48.984;8.394;2022-12-26T13:42:54;10.60;99.90
38866;DHT22;62686;48.984;8.394;2022-12-26T13:45:52;10.60;99.90
38866;DHT22;62686;48.984;8.394;2022-12-26T13:48:51;10.60;99.90
38866;DHT22;62686;48.984;8.394;2022-12-26T13:51:48;10.60;99.90
38866;DHT22;62686;48.984;8.394;2022-12-26T13:54:18;10.60;99.90
38866;DHT22;62686;48.984;8.394;2022-12-26T13:57:25;10.70;99.90
38866;DHT22;62686;48.984;8.394;2022-12-26T14:00:01;10.70;99.90
38866;DHT22;62686;48.984;8.394;2022-12-26T14:06:11;10.70;99.90
38866;DHT22;62686;48.984;8.394;2022-12-26T14:08:53;10.70;99.90
38866;DHT22;62686;48.984;8.394;2022-12-26T14:11:34;10.60;99.90
38866;DHT22;62686;48.984;8.394;2022-12-26T14:14:12;10.60;99.90
38866;DHT22;62686;48.984;8.394;2022-12-26T14:16:46;10.60;99.90
38866;DHT22;62686;48.984;8.394;2022-12-26T14:19:41;10.60;99.90
38866;DHT22;62686;48.984;8.394;2022-12-26T14:22:14;10.60;99.90
38866;DHT22;62686;48.984;8.394;2022-12-26T14:24:58;10.60;99.90
38866;DHT22;62686;48.984;8.394;2022-12-26T14:27:52;10.60;99.90
38866;DHT22;62686;48.984;8.394;2022-12-26T14:30:27;10.50;99.90
38866;DHT22;62686;48.984;8.394;2022-12-26T14:33:19;10.50;99.90
38866;DHT22;62686;48.984;8.394;2022-12-26T14:35:58;10.40;99.90
38866;DHT22;62686;48.984;8.394;2022-12-26T14:38:36;10.40;99.90
38866;DHT22;62686;48.984;8.394;2022-12-26T14:41:09;10.40;99.90
38866;DHT22;62686;48.984;8.394;2022-12-26T14:44:09;10.40;99.90
38866;DHT22;62686;48.984;8.394;2022-12-26T14:47:00;10.40;99.90
38866;DHT22;62686;48.984;8.394;2022-12-26T14:49:40;10.40;99.90
38866;DHT22;62686;48.984;8.394;2022-12-26T14:52:38;10.40;99.90
38866;DHT22;62686;48.984;8.394;2022-12-26T14:55:37;10.40;99.90
38866;DHT22;62686;48.984;8.394;2022-12-26T14:58:40;10.40;99.90
38866;DHT22;62686;48.984;8.394;2022-12-26T15:05:05;10.40;99.90
38866;DHT22;62686;48.984;8.394;2022-12-26T15:08:07;10.40;99.90
38866;DHT22;62686;48.984;8.394;2022-12-26T15:11:18;10.30;99.90
38866;DHT22;62686;48.984;8.394;2022-12-26T15:17:09;10.30;99.90
38866;DHT22;62686;48.984;8.394;2022-12-26T15:23:12;10.20;99.90
38866;DHT22;62686;48.984;8.394;2022-12-26T15:29:08;10.20;99.90
38866;DHT22;62686;48.984;8.394;2022-12-26T15:31:57;10.20;99.90
38866;DHT22;62686;48.984;8.394;2022-12-26T15:34:46;10.20;99.90
38866;DHT22;62686;48.984;8.394;2022-12-26T15:37:35;10.30;99.90
38866;DHT22;62686;48.984;8.394;2022-12-26T15:40:11;10.30;99.90
38866;DHT22;62686;48.984;8.394;2022-12-26T15:42:58;10.30;99.90
38866;DHT22;62686;48.984;8.394;2022-12-26T15:45:41;10.20;99.90
38866;DHT22;62686;48.984;8.394;2022-12-26T15:48:31;10.30;99.90
38866;DHT22;62686;48.984;8.394;2022-12-26T15:51:05;10.30;99.90
38866;DHT22;62686;48.984;8.394;2022-12-26T15:53:48;10.30;99.90
38866;DHT22;62686;48.984;8.394;2022-12-26T15:56:41;10.30;99.90
38866;DHT22;62686;48.984;8.394;2022-12-26T15:59:39;10.30;99.90
38866;DHT22;62686;48.984;8.394;2022-12-26T16:02:32;10.30;99.90
38866;DHT22;62686;48.984;8.394;2022-12-26T16:05:30;10.20;99.90
38866;DHT22;62686;48.984;8.394;2022-12-26T16:08:12;10.30;99.90
38866;DHT22;62686;48.984;8.394;2022-12-26T16:10:47;10.30;99.90
38866;DHT22;62686;48.984;8.394;2022-12-26T16:13:31;10.20;99.90
38866;DHT22;62686;48.984;8.394;2022-12-26T16:16:03;10.20;99.90
38866;DHT22;62686;48.984;8.394;2022-12-26T16:18:34;10.20;99.90
38866;DHT22;62686;48.984;8.394;2022-12-26T16:21:05;10.20;99.90
38866;DHT22;62686;48.984;8.394;2022-12-26T16:23:53;10.20;99.90
38866;DHT22;62686;48.984;8.394;2022-12-26T16:26:25;10.20;99.90
38866;DHT22;62686;48.984;8.394;2022-12-26T16:28:59;10.10;99.90
38866;DHT22;62686;48.984;8.394;2022-12-26T16:31:30;10.20;99.90
38866;DHT22;62686;48.984;8.394;2022-12-26T16:34:02;10.20;99.90
38866;DHT22;62686;48.984;8.394;2022-12-26T16:36:40;10.10;99.90
38866;DHT22;62686;48.984;8.394;2022-12-26T16:39:17;10.10;99.90
38866;DHT22;62686;48.984;8.394;2022-12-26T16:42:01;10.20;99.90
38866;DHT22;62686;48.984;8.394;2022-12-26T16:44:38;10.20;99.90
38866;DHT22;62686;48.984;8.394;2022-12-26T16:47:09;10.20;99.90
38866;DHT22;62686;48.984;8.394;2022-12-26T16:49:40;10.20;99.90
38866;DHT22;62686;48.984;8.394;2022-12-26T16:52:29;10.10;99.90